sensor_id;sensor_type;location;lat;lon;timestamp;temperature;humidity
27384;DHT22;14851;51.166;4.760;2023-05-07T00:01:13;14.50;99.90
27384;DHT22;14851;51.166;4.760;2023-05-07T00:03:39;14.50;99.90
27384;DHT22;14851;51.166;4.760;2023-05-07T00:06:05;14.50;99.90
27384;DHT22;14851;51.166;4.760;2023-05-07T00:08:31;14.50;99.90
27384;DHT22;14851;51.166;4.760;2023-05-07T00:10:57;14.50;99.90
27384;DHT22;14851;51.166;4.760;2023-05-07T00:13:23;14.50;99.90
27384;DHT22;14851;51.166;4.760;2023-05-07T00:15:49;14.50;99.90
27384;DHT22;14851;51.166;4.760;2023-05-07T00:18:15;14.50;99.90
27384;DHT22;14851;51.166;4.760;2023-05-07T00:20:41;14.50;99.90
27384;DHT22;14851;51.166;4.760;2023-05-07T00:23:07;14.50;99.90
27384;DHT22;14851;51.166;4.760;2023-05-07T00:25:33;14.50;99.90
27384;DHT22;14851;51.166;4.760;2023-05-07T00:27:59;14.50;99.90
27384;DHT22;14851;51.166;4.760;2023-05-07T00:30:29;14.50;99.90
27384;DHT22;14851;51.166;4.760;2023-05-07T00:32:55;14.50;99.90
27384;DHT22;14851;51.166;4.760;2023-05-07T00:35:21;14.50;99.90
27384;DHT22;14851;51.166;4.760;2023-05-07T00:37:49;14.50;99.90
27384;DHT22;14851;51.166;4.760;2023-05-07T00:40:15;14.50;99.90
27384;DHT22;14851;51.166;4.760;2023-05-07T00:42:44;14.50;99.90
27384;DHT22;14851;51.166;4.760;2023-05-07T00:45:16;14.50;99.90
27384;DHT22;14851;51.166;4.760;2023-05-07T00:47:42;14.40;99.90
27384;DHT22;14851;51.166;4.760;2023-05-07T00:50:11;14.50;99.90
27384;DHT22;14851;51.166;4.760;2023-05-07T00:52:38;14.50;99.90
27384;DHT22;14851;51.166;4.760;2023-05-07T00:55:05;14.50;99.90
27384;DHT22;14851;51.166;4.760;2023-05-07T00:57:41;14.40;99.90
27384;DHT22;14851;51.166;4.760;2023-05-07T01:00:08;14.40;99.90
27384;DHT22;14851;51.166;4.760;2023-05-07T01:02:35;14.40;99.90
27384;DHT22;14851;51.166;4.760;2023-05-07T01:05:03;14.40;99.90
27384;DHT22;14851;51.166;4.760;2023-05-07T01:07:31;14.40;99.90
27384;DHT22;14851;51.166;4.760;2023-05-07T01:10:01;14.40;99.90
27384;DHT22;14851;51.166;4.760;2023-05-07T01:12:28;14.40;99.90
27384;DHT22;14851;51.166;4.760;2023-05-07T01:14:58;14.30;99.90
27384;DHT22;14851;51.166;4.760;2023-05-07T01:17:24;14.40;99.90
27384;DHT22;14851;51.166;4.760;2023-05-07T01:19:51;14.40;99.90
27384;DHT22;14851;51.166;4.760;2023-05-07T01:22:38;14.30;99.90
27384;DHT22;14851;51.166;4.760;2023-05-07T01:25:07;14.30;99.90
27384;DHT22;14851;51.166;4.760;2023-05-07T01:27:35;14.30;99.90
27384;DHT22;14851;51.166;4.760;2023-05-07T01:30:04;14.40;99.90
27384;DHT22;14851;51.166;4.760;2023-05-07T01:32:42;14.30;99.90
27384;DHT22;14851;51.166;4.760;2023-05-07T01:35:11;14.30;99.90
27384;DHT22;14851;51.166;4.760;2023-05-07T01:37:41;14.30;99.90
27384;DHT22;14851;51.166;4.760;2023-05-07T01:40:08;14.30;99.90
27384;DHT22;14851;51.166;4.760;2023-05-07T01:42:37;14.30;99.90
27384;DHT22;14851;51.166;4.760;2023-05-07T01:45:06;14.30;99.90
27384;DHT22;14851;51.166;4.760;2023-05-07T01:47:32;14.30;99.90
27384;DHT22;14851;51.166;4.760;2023-05-07T01:50:01;14.30;99.90
27384;DHT22;14851;51.166;4.760;2023-05-07T01:52:30;14.30;99.90
27384;DHT22;14851;51.166;4.760;2023-05-07T01:54:59;14.30;99.90
27384;DHT22;14851;51.166;4.760;2023-05-07T01:57:24;14.30;99.90
27384;DHT22;14851;51.166;4.760;2023-05-07T01:59:51;14.20;99.90
27384;DHT22;14851;51.166;4.760;2023-05-07T02:02:17;14.20;99.90
27384;DHT22;14851;51.166;4.760;2023-05-07T02:04:45;14.20;99.90
27384;DHT22;14851;51.166;4.760;2023-05-07T02:07:12;14.10;99.90
27384;DHT22;14851;51.166;4.760;2023-05-07T02:09:38;14.10;99.90
27384;DHT22;14851;51.166;4.760;2023-05-07T02:12:04;14.10;99.90
27384;DHT22;14851;51.166;4.760;2023-05-07T02:14:31;14.00;99.90
27384;DHT22;14851;51.166;4.760;2023-05-07T02:16:56;14.00;99.90
27384;DHT22;14851;51.166;4.760;2023-05-07T02:19:23;14.00;99.90
27384;DHT22;14851;51.166;4.760;2023-05-07T02:21:51;14.00;99.90
27384;DHT22;14851;51.166;4.760;2023-05-07T02:24:17;14.00;99.90
27384;DHT22;14851;51.166;4.760;2023-05-07T02:26:43;14.00;99.90
27384;DHT22;14851;51.166;4.760;2023-05-07T02:29:09;13.90;99.90
27384;DHT22;14851;51.166;4.760;2023-05-07T02:31:36;14.00;99.90
27384;DHT22;14851;51.166;4.760;2023-05-07T02:34:02;14.00;99.90
27384;DHT22;14851;51.166;4.760;2023-05-07T02:36:28;14.00;99.90
27384;DHT22;14851;51.166;4.760;2023-05-07T02:39:00;13.90;99.90
27384;DHT22;14851;51.166;4.760;2023-05-07T02:41:28;14.00;99.90
27384;DHT22;14851;51.166;4.760;2023-05-07T02:43:54;13.90;99.90
27384;DHT22;14851;51.166;4.760;2023-05-07T02:46:20;13.90;99.90
27384;DHT22;14851;51.166;4.760;2023-05-07T02:48:51;13.90;99.90
27384;DHT22;14851;51.166;4.760;2023-05-07T02:51:22;13.90;99.90
27384;DHT22;14851;51.166;4.760;2023-05-07T02:53:48;13.90;99.90
27384;DHT22;14851;51.166;4.760;2023-05-07T02:56:14;13.90;99.90
27384;DHT22;14851;51.166;4.760;2023-05-07T02:58:40;13.90;99.90
27384;DHT22;14851;51.166;4.760;2023-05-07T03:01:08;13.90;99.90
27384;DHT22;14851;51.166;4.760;2023-05-07T03:03:43;13.90;99.90
27384;DHT22;14851;51.166;4.760;2023-05-07T03:06:09;13.90;99.90
27384;DHT22;14851;51.166;4.760;2023-05-07T03:08:36;13.90;99.90
27384;DHT22;14851;51.166;4.760;2023-05-07T03:11:02;13.90;99.90
27384;DHT22;14851;51.166;4.760;2023-05-07T03:13:28;13.80;99.90
27384;DHT22;14851;51.166;4.760;2023-05-07T03:15:56;13.80;99.90
27384;DHT22;14851;51.166;4.760;2023-05-07T03:18:22;13.90;99.90
27384;DHT22;14851;51.166;4.760;2023-05-07T03:20:48;13.90;99.90
27384;DHT22;14851;51.166;4.760;2023-05-07T03:23:15;13.90;99.90
27384;DHT22;14851;51.166;4.760;2023-05-07T03:25:41;13.90;99.90
27384;DHT22;14851;51.166;4.760;2023-05-07T03:28:09;13.90;99.90
27384;DHT22;14851;51.166;4.760;2023-05-07T03:30:41;13.90;99.90
27384;DHT22;14851;51.166;4.760;2023-05-07T03:33:07;13.90;99.90
27384;DHT22;14851;51.166;4.760;2023-05-07T03:35:38;13.90;99.90
27384;DHT22;14851;51.166;4.760;2023-05-07T03:38:04;13.90;99.90
27384;DHT22;14851;51.166;4.760;2023-05-07T03:40:33;13.80;99.90
27384;DHT22;14851;51.166;4.760;2023-05-07T03:43:00;13.80;99.90
27384;DHT22;14851;51.166;4.760;2023-05-07T03:45:28;13.90;99.90
27384;DHT22;14851;51.166;4.760;2023-05-07T03:48:06;13.80;99.90
27384;DHT22;14851;51.166;4.760;2023-05-07T03:50:32;13.90;99.90
27384;DHT22;14851;51.166;4.760;2023-05-07T03:52:58;13.80;99.90
27384;DHT22;14851;51.166;4.760;2023-05-07T03:55:24;13.80;99.90
27384;DHT22;14851;51.166;4.760;2023-05-07T03:57:56;13.90;99.90
27384;DHT22;14851;51.166;4.760;2023-05-07T04:00:23;13.90;99.90
27384;DHT22;14851;51.166;4.760;2023-05-07T04:02:49;13.90;99.90
27384;DHT22;14851;51.166;4.760;2023-05-07T04:05:24;13.90;99.90
27384;DHT22;14851;51.166;4.760;2023-05-07T04:07:54;13.90;99.90
27384;DHT22;14851;51.166;4.760;2023-05-07T04:10:26;13.90;99.90
27384;DHT22;14851;51.166;4.760;2023-05-07T04:12:56;13.90;99.90
27384;DHT22;14851;51.166;4.760;2023-05-07T04:15:24;13.90;99.90
27384;DHT22;14851;51.166;4.760;2023-05-07T04:17:50;13.90;99.90
27384;DHT22;14851;51.166;4.760;2023-05-07T04:20:19;13.90;99.90
27384;DHT22;14851;51.166;4.760;2023-05-07T04:22:49;13.90;99.90
27384;DHT22;14851;51.166;4.760;2023-05-07T04:25:16;13.90;99.90
27384;DHT22;14851;51.166;4.760;2023-05-07T04:27:42;13.90;99.90
27384;DHT22;14851;51.166;4.760;2023-05-07T04:30:09;13.90;99.90
27384;DHT22;14851;51.166;4.760;2023-05-07T04:32:38;13.90;99.90
27384;DHT22;14851;51.166;4.760;2023-05-07T04:35:05;13.90;99.90
27384;DHT22;14851;51.166;4.760;2023-05-07T04:37:32;13.90;99.90
27384;DHT22;14851;51.166;4.760;2023-05-07T04:39:59;13.90;99.90
27384;DHT22;14851;51.166;4.760;2023-05-07T04:42:26;13.90;99.90
27384;DHT22;14851;51.166;4.760;2023-05-07T04:44:53;13.90;99.90
27384;DHT22;14851;51.166;4.760;2023-05-07T04:47:20;13.90;99.90
27384;DHT22;14851;51.166;4.760;2023-05-07T04:49:46;13.90;99.90
27384;DHT22;14851;51.166;4.760;2023-05-07T04:52:14;14.00;99.90
27384;DHT22;14851;51.166;4.760;2023-05-07T04:54:41;13.90;99.90
27384;DHT22;14851;51.166;4.760;2023-05-07T04:57:07;13.90;99.90
27384;DHT22;14851;51.166;4.760;2023-05-07T04:59:34;14.00;99.90
27384;DHT22;14851;51.166;4.760;2023-05-07T05:02:00;14.00;99.90
27384;DHT22;14851;51.166;4.760;2023-05-07T05:04:29;14.00;99.90
27384;DHT22;14851;51.166;4.760;2023-05-07T05:06:55;14.00;99.90
27384;DHT22;14851;51.166;4.760;2023-05-07T05:09:24;14.10;99.90
27384;DHT22;14851;51.166;4.760;2023-05-07T05:11:50;14.10;99.90
27384;DHT22;14851;51.166;4.760;2023-05-07T05:14:17;14.10;99.90
27384;DHT22;14851;51.166;4.760;2023-05-07T05:16:43;14.10;99.90
27384;DHT22;14851;51.166;4.760;2023-05-07T05:19:09;14.10;99.90
27384;DHT22;14851;51.166;4.760;2023-05-07T05:21:38;14.10;99.90
27384;DHT22;14851;51.166;4.760;2023-05-07T05:24:09;14.20;99.90
27384;DHT22;14851;51.166;4.760;2023-05-07T05:26:35;14.10;99.90
27384;DHT22;14851;51.166;4.760;2023-05-07T05:29:01;14.20;99.90
27384;DHT22;14851;51.166;4.760;2023-05-07T05:31:29;14.20;99.90
27384;DHT22;14851;51.166;4.760;2023-05-07T05:33:55;14.30;99.90
27384;DHT22;14851;51.166;4.760;2023-05-07T05:36:21;14.30;99.90
27384;DHT22;14851;51.166;4.760;2023-05-07T05:38:50;14.30;99.90
27384;DHT22;14851;51.166;4.760;2023-05-07T05:41:17;14.30;99.90
27384;DHT22;14851;51.166;4.760;2023-05-07T05:43:43;14.30;99.90
27384;DHT22;14851;51.166;4.760;2023-05-07T05:46:10;14.40;99.90
27384;DHT22;14851;51.166;4.760;2023-05-07T05:48:38;14.40;99.90
27384;DHT22;14851;51.166;4.760;2023-05-07T05:51:05;14.40;99.90
27384;DHT22;14851;51.166;4.760;2023-05-07T05:53:31;14.40;99.90
27384;DHT22;14851;51.166;4.760;2023-05-07T05:55:59;14.50;99.90
27384;DHT22;14851;51.166;4.760;2023-05-07T05:58:30;14.50;99.90
27384;DHT22;14851;51.166;4.760;2023-05-07T06:01:00;14.50;99.90
27384;DHT22;14851;51.166;4.760;2023-05-07T06:03:30;14.60;99.90
27384;DHT22;14851;51.166;4.760;2023-05-07T06:06:04;14.60;99.90
27384;DHT22;14851;51.166;4.760;2023-05-07T06:08:31;14.60;99.90
27384;DHT22;14851;51.166;4.760;2023-05-07T06:10:57;14.70;99.90
27384;DHT22;14851;51.166;4.760;2023-05-07T06:13:24;14.70;99.90
27384;DHT22;14851;51.166;4.760;2023-05-07T06:15:53;14.70;99.90
27384;DHT22;14851;51.166;4.760;2023-05-07T06:18:19;14.70;99.90
27384;DHT22;14851;51.166;4.760;2023-05-07T06:20:45;14.70;99.90
27384;DHT22;14851;51.166;4.760;2023-05-07T06:23:21;14.70;99.90
27384;DHT22;14851;51.166;4.760;2023-05-07T06:25:51;14.70;99.90
27384;DHT22;14851;51.166;4.760;2023-05-07T06:28:18;14.70;99.90
27384;DHT22;14851;51.166;4.760;2023-05-07T06:30:45;14.80;99.90
27384;DHT22;14851;51.166;4.760;2023-05-07T06:33:11;14.80;99.90
27384;DHT22;14851;51.166;4.760;2023-05-07T06:35:38;14.80;99.90
27384;DHT22;14851;51.166;4.760;2023-05-07T06:38:09;14.80;99.90
27384;DHT22;14851;51.166;4.760;2023-05-07T06:40:40;14.80;99.90
27384;DHT22;14851;51.166;4.760;2023-05-07T06:43:06;14.80;99.90
27384;DHT22;14851;51.166;4.760;2023-05-07T06:45:47;14.80;99.90
27384;DHT22;14851;51.166;4.760;2023-05-07T06:48:13;14.90;99.90
27384;DHT22;14851;51.166;4.760;2023-05-07T06:51:01;14.90;99.90
27384;DHT22;14851;51.166;4.760;2023-05-07T06:53:29;14.90;99.90
27384;DHT22;14851;51.166;4.760;2023-05-07T06:55:59;14.90;99.90
27384;DHT22;14851;51.166;4.760;2023-05-07T06:58:30;15.00;99.90
27384;DHT22;14851;51.166;4.760;2023-05-07T07:00:59;14.90;99.90
27384;DHT22;14851;51.166;4.760;2023-05-07T07:03:31;15.00;99.90
27384;DHT22;14851;51.166;4.760;2023-05-07T07:05:57;15.00;99.90
27384;DHT22;14851;51.166;4.760;2023-05-07T07:08:23;15.00;99.90
27384;DHT22;14851;51.166;4.760;2023-05-07T07:10:50;15.00;99.90
27384;DHT22;14851;51.166;4.760;2023-05-07T07:13:16;15.00;99.90
27384;DHT22;14851;51.166;4.760;2023-05-07T07:15:43;15.10;99.90
27384;DHT22;14851;51.166;4.760;2023-05-07T07:18:14;15.10;99.90
27384;DHT22;14851;51.166;4.760;2023-05-07T07:20:41;15.10;99.90
27384;DHT22;14851;51.166;4.760;2023-05-07T07:23:10;15.20;99.90
27384;DHT22;14851;51.166;4.760;2023-05-07T07:25:36;15.20;99.90
27384;DHT22;14851;51.166;4.760;2023-05-07T07:28:02;15.20;99.90
27384;DHT22;14851;51.166;4.760;2023-05-07T07:30:28;15.30;99.90
27384;DHT22;14851;51.166;4.760;2023-05-07T07:32:54;15.30;99.90
27384;DHT22;14851;51.166;4.760;2023-05-07T07:35:26;15.20;99.90
27384;DHT22;14851;51.166;4.760;2023-05-07T07:37:57;15.30;99.90
27384;DHT22;14851;51.166;4.760;2023-05-07T07:40:23;15.20;99.90
27384;DHT22;14851;51.166;4.760;2023-05-07T07:42:51;15.20;99.90
27384;DHT22;14851;51.166;4.760;2023-05-07T07:45:17;15.30;99.90
27384;DHT22;14851;51.166;4.760;2023-05-07T07:47:46;15.30;99.90
27384;DHT22;14851;51.166;4.760;2023-05-07T07:50:13;15.40;99.90
27384;DHT22;14851;51.166;4.760;2023-05-07T07:52:39;15.40;99.90
27384;DHT22;14851;51.166;4.760;2023-05-07T07:55:09;15.40;99.90
27384;DHT22;14851;51.166;4.760;2023-05-07T07:57:37;15.40;99.90
27384;DHT22;14851;51.166;4.760;2023-05-07T08:00:04;15.50;99.90
27384;DHT22;14851;51.166;4.760;2023-05-07T08:02:42;15.50;99.90
27384;DHT22;14851;51.166;4.760;2023-05-07T08:05:09;15.60;99.90
27384;DHT22;14851;51.166;4.760;2023-05-07T08:07:35;15.60;99.90
27384;DHT22;14851;51.166;4.760;2023-05-07T08:10:02;15.70;99.90
27384;DHT22;14851;51.166;4.760;2023-05-07T08:12:32;15.70;99.90
27384;DHT22;14851;51.166;4.760;2023-05-07T08:14:58;15.80;99.90
27384;DHT22;14851;51.166;4.760;2023-05-07T08:17:27;15.80;99.90
27384;DHT22;14851;51.166;4.760;2023-05-07T08:19:55;15.80;99.90
27384;DHT22;14851;51.166;4.760;2023-05-07T08:22:21;15.90;99.90
27384;DHT22;14851;51.166;4.760;2023-05-07T08:24:49;15.90;99.90
27384;DHT22;14851;51.166;4.760;2023-05-07T08:27:15;15.90;99.90
27384;DHT22;14851;51.166;4.760;2023-05-07T08:29:42;16.00;99.90
27384;DHT22;14851;51.166;4.760;2023-05-07T08:32:08;16.00;99.90
27384;DHT22;14851;51.166;4.760;2023-05-07T08:34:36;16.00;99.90
27384;DHT22;14851;51.166;4.760;2023-05-07T08:37:05;16.10;99.90
27384;DHT22;14851;51.166;4.760;2023-05-07T08:39:31;16.10;99.90
27384;DHT22;14851;51.166;4.760;2023-05-07T08:42:02;16.10;99.90
27384;DHT22;14851;51.166;4.760;2023-05-07T08:44:36;16.10;99.90
27384;DHT22;14851;51.166;4.760;2023-05-07T08:47:08;16.20;99.90
27384;DHT22;14851;51.166;4.760;2023-05-07T08:49:36;16.20;99.90
27384;DHT22;14851;51.166;4.760;2023-05-07T08:52:02;16.20;99.90
27384;DHT22;14851;51.166;4.760;2023-05-07T08:54:31;16.20;99.90
27384;DHT22;14851;51.166;4.760;2023-05-07T08:56:58;16.20;99.90
27384;DHT22;14851;51.166;4.760;2023-05-07T08:59:25;16.20;99.90
27384;DHT22;14851;51.166;4.760;2023-05-07T09:01:52;16.20;99.90
27384;DHT22;14851;51.166;4.760;2023-05-07T09:04:18;16.30;99.90
27384;DHT22;14851;51.166;4.760;2023-05-07T09:06:44;16.30;99.90
27384;DHT22;14851;51.166;4.760;2023-05-07T09:09:14;16.30;99.90
27384;DHT22;14851;51.166;4.760;2023-05-07T09:11:43;16.30;99.90
27384;DHT22;14851;51.166;4.760;2023-05-07T09:14:10;16.30;99.90
27384;DHT22;14851;51.166;4.760;2023-05-07T09:16:40;16.40;99.90
27384;DHT22;14851;51.166;4.760;2023-05-07T09:19:08;16.40;99.90
27384;DHT22;14851;51.166;4.760;2023-05-07T09:21:35;16.40;99.90
27384;DHT22;14851;51.166;4.760;2023-05-07T09:24:04;16.40;99.90
27384;DHT22;14851;51.166;4.760;2023-05-07T09:26:38;16.40;99.90
27384;DHT22;14851;51.166;4.760;2023-05-07T09:29:05;16.40;99.90
27384;DHT22;14851;51.166;4.760;2023-05-07T09:31:31;16.40;99.90
27384;DHT22;14851;51.166;4.760;2023-05-07T09:33:58;16.40;99.90
27384;DHT22;14851;51.166;4.760;2023-05-07T09:36:31;16.40;99.90
27384;DHT22;14851;51.166;4.760;2023-05-07T09:38:59;16.40;99.90
27384;DHT22;14851;51.166;4.760;2023-05-07T09:41:26;16.40;99.90
27384;DHT22;14851;51.166;4.760;2023-05-07T09:43:59;16.40;99.90
27384;DHT22;14851;51.166;4.760;2023-05-07T09:46:34;16.40;99.90
27384;DHT22;14851;51.166;4.760;2023-05-07T09:49:07;16.40;99.90
27384;DHT22;14851;51.166;4.760;2023-05-07T09:51:41;16.40;99.90
27384;DHT22;14851;51.166;4.760;2023-05-07T09:54:10;16.40;99.90
27384;DHT22;14851;51.166;4.760;2023-05-07T09:56:43;16.40;99.90
27384;DHT22;14851;51.166;4.760;2023-05-07T09:59:13;16.50;99.90
27384;DHT22;14851;51.166;4.760;2023-05-07T10:01:44;16.40;99.90
27384;DHT22;14851;51.166;4.760;2023-05-07T10:04:12;16.50;99.90
27384;DHT22;14851;51.166;4.760;2023-05-07T10:06:45;16.50;99.90
27384;DHT22;14851;51.166;4.760;2023-05-07T10:09:17;16.50;99.90
27384;DHT22;14851;51.166;4.760;2023-05-07T10:11:44;16.50;99.90
27384;DHT22;14851;51.166;4.760;2023-05-07T10:14:14;16.50;99.90
27384;DHT22;14851;51.166;4.760;2023-05-07T10:16:41;16.50;99.90
27384;DHT22;14851;51.166;4.760;2023-05-07T10:19:11;16.50;99.90
27384;DHT22;14851;51.166;4.760;2023-05-07T10:21:48;16.60;99.90
27384;DHT22;14851;51.166;4.760;2023-05-07T10:24:21;16.60;99.90
27384;DHT22;14851;51.166;4.760;2023-05-07T10:26:52;16.60;99.90
27384;DHT22;14851;51.166;4.760;2023-05-07T10:29:29;16.60;99.90
27384;DHT22;14851;51.166;4.760;2023-05-07T10:32:12;16.70;99.90
27384;DHT22;14851;51.166;4.760;2023-05-07T10:34:43;16.70;99.90
27384;DHT22;14851;51.166;4.760;2023-05-07T10:37:11;16.70;99.90
27384;DHT22;14851;51.166;4.760;2023-05-07T10:39:38;16.70;99.90
27384;DHT22;14851;51.166;4.760;2023-05-07T10:42:14;16.70;99.90
27384;DHT22;14851;51.166;4.760;2023-05-07T10:44:46;16.70;99.90
27384;DHT22;14851;51.166;4.760;2023-05-07T10:47:20;16.70;99.90
27384;DHT22;14851;51.166;4.760;2023-05-07T10:52:24;16.70;99.90
27384;DHT22;14851;51.166;4.760;2023-05-07T10:55:27;16.80;99.90
27384;DHT22;14851;51.166;4.760;2023-05-07T11:00:58;16.80;99.90
27384;DHT22;14851;51.166;4.760;2023-05-07T11:03:29;16.80;99.90
27384;DHT22;14851;51.166;4.760;2023-05-07T11:08:58;16.80;99.90
27384;DHT22;14851;51.166;4.760;2023-05-07T11:11:49;16.80;99.90
27384;DHT22;14851;51.166;4.760;2023-05-07T11:14:44;16.80;99.90
27384;DHT22;14851;51.166;4.760;2023-05-07T11:17:25;16.80;99.90
27384;DHT22;14851;51.166;4.760;2023-05-07T11:19:58;16.80;99.90
27384;DHT22;14851;51.166;4.760;2023-05-07T11:22:50;16.80;99.90
27384;DHT22;14851;51.166;4.760;2023-05-07T11:25:22;16.80;99.90
27384;DHT22;14851;51.166;4.760;2023-05-07T11:28:06;16.80;99.90
27384;DHT22;14851;51.166;4.760;2023-05-07T11:30:33;16.90;99.90
27384;DHT22;14851;51.166;4.760;2023-05-07T11:33:00;16.90;99.90
27384;DHT22;14851;51.166;4.760;2023-05-07T11:35:26;16.90;99.90
27384;DHT22;14851;51.166;4.760;2023-05-07T11:37:59;16.90;99.90
27384;DHT22;14851;51.166;4.760;2023-05-07T11:40:26;16.90;99.90
27384;DHT22;14851;51.166;4.760;2023-05-07T11:42:52;16.90;99.90
27384;DHT22;14851;51.166;4.760;2023-05-07T11:45:24;16.90;99.90
27384;DHT22;14851;51.166;4.760;2023-05-07T11:47:52;16.90;99.90
27384;DHT22;14851;51.166;4.760;2023-05-07T11:50:23;16.90;99.90
27384;DHT22;14851;51.166;4.760;2023-05-07T11:52:51;16.90;99.90
27384;DHT22;14851;51.166;4.760;2023-05-07T11:55:18;16.90;99.90
27384;DHT22;14851;51.166;4.760;2023-05-07T11:57:44;17.00;99.90
27384;DHT22;14851;51.166;4.760;2023-05-07T12:00:11;17.00;99.90
27384;DHT22;14851;51.166;4.760;2023-05-07T12:02:43;17.00;99.90
27384;DHT22;14851;51.166;4.760;2023-05-07T12:05:11;17.00;99.90
27384;DHT22;14851;51.166;4.760;2023-05-07T12:07:37;17.10;99.90
27384;DHT22;14851;51.166;4.760;2023-05-07T12:10:06;17.10;99.90
27384;DHT22;14851;51.166;4.760;2023-05-07T12:12:41;17.10;99.90
27384;DHT22;14851;51.166;4.760;2023-05-07T12:15:10;17.10;99.90
27384;DHT22;14851;51.166;4.760;2023-05-07T12:17:37;17.10;99.90
27384;DHT22;14851;51.166;4.760;2023-05-07T12:20:04;17.20;99.90
27384;DHT22;14851;51.166;4.760;2023-05-07T12:22:30;17.20;99.90
27384;DHT22;14851;51.166;4.760;2023-05-07T12:24:57;17.20;99.90
27384;DHT22;14851;51.166;4.760;2023-05-07T12:27:25;17.20;99.90
27384;DHT22;14851;51.166;4.760;2023-05-07T12:29:51;17.20;99.90
27384;DHT22;14851;51.166;4.760;2023-05-07T12:32:19;17.20;99.90
27384;DHT22;14851;51.166;4.760;2023-05-07T12:34:46;17.20;99.90
27384;DHT22;14851;51.166;4.760;2023-05-07T12:37:12;17.30;99.90
27384;DHT22;14851;51.166;4.760;2023-05-07T12:39:43;17.30;99.90
27384;DHT22;14851;51.166;4.760;2023-05-07T12:42:21;17.30;99.90
27384;DHT22;14851;51.166;4.760;2023-05-07T12:44:52;17.40;99.90
27384;DHT22;14851;51.166;4.760;2023-05-07T12:47:18;17.40;99.90
27384;DHT22;14851;51.166;4.760;2023-05-07T12:49:47;17.40;99.90
27384;DHT22;14851;51.166;4.760;2023-05-07T12:52:15;17.50;99.90
27384;DHT22;14851;51.166;4.760;2023-05-07T12:54:41;17.60;99.90
27384;DHT22;14851;51.166;4.760;2023-05-07T12:57:09;17.50;99.90
27384;DHT22;14851;51.166;4.760;2023-05-07T12:59:40;17.60;99.90
27384;DHT22;14851;51.166;4.760;2023-05-07T13:02:07;17.60;99.90
27384;DHT22;14851;51.166;4.760;2023-05-07T13:04:35;17.60;99.90
27384;DHT22;14851;51.166;4.760;2023-05-07T13:07:01;17.60;99.90
27384;DHT22;14851;51.166;4.760;2023-05-07T13:09:28;17.60;99.90
27384;DHT22;14851;51.166;4.760;2023-05-07T13:11:57;17.60;99.90
27384;DHT22;14851;51.166;4.760;2023-05-07T13:14:25;17.70;99.90
27384;DHT22;14851;51.166;4.760;2023-05-07T13:16:51;17.70;99.90
27384;DHT22;14851;51.166;4.760;2023-05-07T13:19:21;17.70;99.90
27384;DHT22;14851;51.166;4.760;2023-05-07T13:21:47;17.80;99.90
27384;DHT22;14851;51.166;4.760;2023-05-07T13:24:13;17.80;99.90
27384;DHT22;14851;51.166;4.760;2023-05-07T13:26:39;17.80;99.90
27384;DHT22;14851;51.166;4.760;2023-05-07T13:29:05;17.90;99.90
27384;DHT22;14851;51.166;4.760;2023-05-07T13:31:30;17.90;99.90
27384;DHT22;14851;51.166;4.760;2023-05-07T13:33:57;18.00;99.90
27384;DHT22;14851;51.166;4.760;2023-05-07T13:36:23;18.00;99.90
27384;DHT22;14851;51.166;4.760;2023-05-07T13:38:50;18.10;99.90
27384;DHT22;14851;51.166;4.760;2023-05-07T13:41:17;18.10;99.90
27384;DHT22;14851;51.166;4.760;2023-05-07T13:43:43;18.10;99.90
27384;DHT22;14851;51.166;4.760;2023-05-07T13:46:09;18.10;99.90
27384;DHT22;14851;51.166;4.760;2023-05-07T13:48:34;18.20;99.90
27384;DHT22;14851;51.166;4.760;2023-05-07T13:51:00;18.20;99.90
27384;DHT22;14851;51.166;4.760;2023-05-07T13:53:26;18.30;99.90
27384;DHT22;14851;51.166;4.760;2023-05-07T13:55:52;18.30;99.90
27384;DHT22;14851;51.166;4.760;2023-05-07T13:58:18;18.30;99.90
27384;DHT22;14851;51.166;4.760;2023-05-07T14:00:44;18.40;99.90
27384;DHT22;14851;51.166;4.760;2023-05-07T14:03:12;18.40;99.90
27384;DHT22;14851;51.166;4.760;2023-05-07T14:05:38;18.40;99.90
27384;DHT22;14851;51.166;4.760;2023-05-07T14:08:04;18.40;99.90
27384;DHT22;14851;51.166;4.760;2023-05-07T14:10:30;18.50;99.90
27384;DHT22;14851;51.166;4.760;2023-05-07T14:12:57;18.50;99.90
27384;DHT22;14851;51.166;4.760;2023-05-07T14:15:25;18.50;99.90
27384;DHT22;14851;51.166;4.760;2023-05-07T14:17:51;18.50;99.90
27384;DHT22;14851;51.166;4.760;2023-05-07T14:20:17;18.50;99.90
27384;DHT22;14851;51.166;4.760;2023-05-07T14:22:43;18.50;99.90
27384;DHT22;14851;51.166;4.760;2023-05-07T14:25:09;18.60;99.90
27384;DHT22;14851;51.166;4.760;2023-05-07T14:27:35;18.60;99.90
27384;DHT22;14851;51.166;4.760;2023-05-07T14:30:03;18.60;99.90
27384;DHT22;14851;51.166;4.760;2023-05-07T14:32:30;18.60;99.90
27384;DHT22;14851;51.166;4.760;2023-05-07T14:34:55;18.70;99.90
27384;DHT22;14851;51.166;4.760;2023-05-07T14:37:21;18.70;99.90
27384;DHT22;14851;51.166;4.760;2023-05-07T14:39:47;18.70;99.90
27384;DHT22;14851;51.166;4.760;2023-05-07T14:42:13;18.70;99.90
27384;DHT22;14851;51.166;4.760;2023-05-07T14:44:39;18.70;99.90
27384;DHT22;14851;51.166;4.760;2023-05-07T14:47:07;18.70;99.90
27384;DHT22;14851;51.166;4.760;2023-05-07T14:49:35;18.80;99.90
27384;DHT22;14851;51.166;4.760;2023-05-07T14:52:01;18.80;99.90
27384;DHT22;14851;51.166;4.760;2023-05-07T14:54:27;18.80;99.90
27384;DHT22;14851;51.166;4.760;2023-05-07T14:56:53;18.80;99.90
27384;DHT22;14851;51.166;4.760;2023-05-07T14:59:20;18.80;99.90
27384;DHT22;14851;51.166;4.760;2023-05-07T15:01:49;18.80;99.90
27384;DHT22;14851;51.166;4.760;2023-05-07T15:04:15;18.80;99.90
27384;DHT22;14851;51.166;4.760;2023-05-07T15:06:42;18.90;99.90
27384;DHT22;14851;51.166;4.760;2023-05-07T15:09:07;18.90;99.90
27384;DHT22;14851;51.166;4.760;2023-05-07T15:11:34;18.90;99.90
27384;DHT22;14851;51.166;4.760;2023-05-07T15:14:02;18.90;99.90
27384;DHT22;14851;51.166;4.760;2023-05-07T15:16:27;18.90;99.90
27384;DHT22;14851;51.166;4.760;2023-05-07T15:18:55;18.90;99.90
27384;DHT22;14851;51.166;4.760;2023-05-07T15:21:22;18.90;99.90
27384;DHT22;14851;51.166;4.760;2023-05-07T15:23:48;18.90;99.90
27384;DHT22;14851;51.166;4.760;2023-05-07T15:26:16;18.90;99.90
27384;DHT22;14851;51.166;4.760;2023-05-07T15:28:44;18.90;99.90
27384;DHT22;14851;51.166;4.760;2023-05-07T15:31:10;18.90;99.90
27384;DHT22;14851;51.166;4.760;2023-05-07T15:33:39;18.80;99.90
27384;DHT22;14851;51.166;4.760;2023-05-07T15:36:06;18.80;99.90
27384;DHT22;14851;51.166;4.760;2023-05-07T15:38:32;18.80;99.90
27384;DHT22;14851;51.166;4.760;2023-05-07T15:40:58;18.80;99.90
27384;DHT22;14851;51.166;4.760;2023-05-07T15:43:23;18.80;99.90
27384;DHT22;14851;51.166;4.760;2023-05-07T15:45:51;18.80;99.90